createdAt,value
2022-12-27T00:01:02.784Z,0.60
2022-12-27T00:03:50.189Z,0.77
2022-12-27T00:06:37.401Z,2.03
2022-12-27T00:09:25.019Z,0.73
2022-12-27T00:12:11.980Z,0.80
2022-12-27T00:14:59.428Z,0.90
2022-12-27T00:17:46.415Z,0.73
2022-12-27T00:20:33.853Z,2.23
2022-12-27T00:23:21.124Z,1.40
2022-12-27T00:26:17.762Z,1.13
2022-12-27T00:29:05.179Z,1.10
2022-12-27T00:31:52.375Z,1.17
2022-12-27T00:34:39.650Z,1.13
2022-12-27T00:37:26.623Z,0.50
2022-12-27T00:40:14.055Z,0.73
2022-12-27T00:43:00.863Z,1.27
2022-12-27T00:45:48.500Z,0.93
2022-12-27T00:48:35.796Z,1.23
2022-12-27T00:51:25.004Z,0.80
2022-12-27T00:54:12.028Z,1.40
2022-12-27T00:56:59.352Z,2.40
2022-12-27T00:59:48.016Z,0.90
2022-12-27T01:02:35.550Z,1.17
2022-12-27T01:05:22.919Z,1.37
2022-12-27T01:08:10.211Z,1.03
2022-12-27T01:10:57.496Z,3.30
2022-12-27T01:13:46.206Z,1.10
2022-12-27T01:16:34.073Z,1.57
2022-12-27T01:19:21.549Z,1.13
2022-12-27T01:22:08.485Z,1.53
2022-12-27T01:24:55.477Z,1.27
2022-12-27T01:27:42.808Z,0.93
2022-12-27T01:30:29.679Z,5.00
2022-12-27T01:33:16.991Z,1.63
2022-12-27T01:36:16.168Z,1.00
2022-12-27T01:39:04.368Z,2.93
2022-12-27T01:42:10.317Z,1.27
2022-12-27T01:44:58.141Z,1.97
2022-12-27T01:48:02.921Z,1.80
2022-12-27T01:50:55.569Z,2.87
2022-12-27T01:53:46.503Z,5.47
2022-12-27T01:56:33.803Z,1.47
2022-12-27T01:59:21.124Z,1.50
2022-12-27T02:02:09.033Z,1.30
2022-12-27T02:04:56.074Z,2.63
2022-12-27T02:08:06.718Z,3.10
2022-12-27T02:10:54.332Z,1.27
2022-12-27T02:13:44.444Z,1.37
2022-12-27T02:16:31.364Z,1.27
2022-12-27T02:19:44.223Z,2.03
2022-12-27T02:23:07.779Z,1.47
2022-12-27T02:26:12.441Z,5.33
2022-12-27T02:29:26.627Z,2.70
2022-12-27T02:32:35.894Z,2.80
2022-12-27T02:35:40.812Z,2.60
2022-12-27T02:38:34.145Z,4.27
2022-12-27T02:41:40.387Z,1.57
2022-12-27T02:44:45.841Z,1.03
2022-12-27T02:47:52.206Z,4.80
2022-12-27T02:51:26.654Z,2.60
2022-12-27T02:55:07.170Z,1.83
2022-12-27T02:58:04.249Z,1.60
2022-12-27T03:01:20.771Z,3.10
2022-12-27T03:04:11.262Z,2.90
2022-12-27T03:07:18.903Z,1.10
2022-12-27T03:10:31.445Z,2.00
2022-12-27T03:14:11.218Z,1.10
2022-12-27T03:17:10.224Z,1.30
2022-12-27T03:20:23.939Z,2.37
2022-12-27T03:23:31.145Z,1.30
2022-12-27T03:26:19.937Z,4.17
2022-12-27T03:29:27.386Z,1.37
2022-12-27T03:32:34.446Z,4.07
2022-12-27T03:35:23.631Z,2.17
2022-12-27T03:38:14.285Z,2.10
2022-12-27T03:41:21.696Z,2.20
2022-12-27T03:44:24.761Z,1.63
2022-12-27T03:47:34.625Z,1.97
2022-12-27T03:50:24.733Z,3.53
2022-12-27T03:53:16.833Z,4.00
2022-12-27T03:56:04.587Z,5.33
2022-12-27T03:58:53.135Z,1.40
2022-12-27T04:01:42.446Z,1.23
2022-12-27T04:04:29.863Z,1.30
2022-12-27T04:07:17.799Z,3.37
2022-12-27T04:10:24.070Z,3.23
2022-12-27T04:13:30.668Z,4.63
2022-12-27T04:16:37.131Z,3.50
2022-12-27T04:19:43.210Z,1.07
2022-12-27T04:22:49.918Z,1.03
2022-12-27T04:25:56.133Z,2.07
2022-12-27T04:29:02.586Z,1.30
2022-12-27T04:32:08.719Z,1.60
2022-12-27T04:34:56.480Z,1.73
2022-12-27T04:37:43.728Z,1.40
2022-12-27T04:40:50.200Z,2.40
2022-12-27T04:43:57.730Z,1.83
2022-12-27T04:47:04.362Z,1.60
2022-12-27T04:50:10.552Z,1.73
2022-12-27T04:53:17.234Z,3.23
2022-12-27T04:56:05.048Z,4.73
2022-12-27T04:59:11.184Z,1.40
2022-12-27T05:02:04.615Z,2.57
2022-12-27T05:04:52.628Z,2.13
2022-12-27T05:07:58.380Z,1.57
2022-12-27T05:11:05.080Z,2.17
2022-12-27T05:14:01.984Z,0.80
2022-12-27T05:16:50.063Z,0.80
2022-12-27T05:19:37.912Z,1.33
2022-12-27T05:22:43.802Z,1.27
2022-12-27T05:25:38.833Z,1.10
2022-12-27T05:28:26.691Z,2.10
2022-12-27T05:31:14.001Z,1.43
2022-12-27T05:34:01.878Z,2.97
2022-12-27T05:36:49.137Z,1.20
2022-12-27T05:39:36.718Z,1.70
2022-12-27T05:42:24.063Z,2.00
2022-12-27T05:45:12.643Z,1.23
2022-12-27T05:48:00.097Z,2.17
2022-12-27T05:50:48.090Z,2.43
2022-12-27T05:53:35.584Z,0.97
2022-12-27T05:56:23.488Z,1.30
2022-12-27T05:59:10.839Z,1.20
2022-12-27T06:01:58.404Z,3.00
2022-12-27T06:04:45.823Z,5.03
2022-12-27T06:07:33.696Z,2.50
2022-12-27T06:10:21.147Z,3.13
2022-12-27T06:13:08.886Z,3.27
2022-12-27T06:15:56.155Z,2.50
2022-12-27T06:18:44.193Z,1.70
2022-12-27T06:21:31.455Z,1.33
2022-12-27T06:24:19.171Z,1.90
2022-12-27T06:27:06.547Z,2.07
2022-12-27T06:29:53.843Z,1.83
2022-12-27T06:32:41.557Z,2.67
2022-12-27T06:35:29.379Z,1.97
2022-12-27T06:38:17.119Z,2.70
2022-12-27T06:41:08.804Z,1.20
2022-12-27T06:43:57.522Z,1.50
2022-12-27T06:46:44.754Z,2.70
2022-12-27T06:49:32.459Z,1.27
2022-12-27T06:52:19.294Z,1.73
2022-12-27T06:55:06.919Z,4.00
2022-12-27T06:57:53.992Z,1.47
2022-12-27T07:00:42.777Z,2.27
2022-12-27T07:03:29.751Z,4.60
2022-12-27T07:06:17.956Z,3.73
2022-12-27T07:09:06.340Z,2.90
2022-12-27T07:11:54.009Z,1.80
2022-12-27T07:14:41.305Z,4.23
2022-12-27T07:17:28.141Z,6.53
2022-12-27T07:20:15.577Z,2.30
2022-12-27T07:23:02.585Z,3.50
2022-12-27T07:25:49.841Z,3.87
2022-12-27T07:28:37.372Z,4.47
2022-12-27T07:31:26.999Z,2.70
2022-12-27T07:34:15.078Z,1.83
2022-12-27T07:37:02.067Z,3.13
2022-12-27T07:39:48.923Z,2.10
2022-12-27T07:42:35.728Z,3.97
2022-12-27T07:45:23.054Z,2.87
2022-12-27T07:48:10.306Z,2.57
2022-12-27T07:50:57.311Z,1.93
2022-12-27T07:53:45.071Z,3.87
2022-12-27T07:56:32.001Z,4.07
2022-12-27T07:59:19.457Z,4.47
2022-12-27T08:02:09.871Z,7.07
2022-12-27T08:04:58.015Z,4.03
2022-12-27T08:07:45.270Z,2.57
2022-12-27T08:10:34.415Z,2.07
2022-12-27T08:13:21.857Z,4.27
2022-12-27T08:16:11.704Z,1.93
2022-12-27T08:19:02.021Z,2.63
2022-12-27T08:21:53.856Z,2.50
2022-12-27T08:24:42.125Z,1.13
2022-12-27T08:27:29.500Z,1.27
2022-12-27T08:30:17.309Z,1.17
2022-12-27T08:33:05.061Z,1.10
2022-12-27T08:35:54.334Z,1.10
2022-12-27T08:38:41.896Z,2.57
2022-12-27T08:41:29.629Z,1.53
2022-12-27T08:44:16.814Z,2.40
2022-12-27T08:47:05.037Z,1.33
2022-12-27T08:49:52.288Z,2.50
2022-12-27T08:52:40.010Z,1.07
2022-12-27T08:55:28.097Z,1.83
2022-12-27T08:58:16.601Z,1.30
2022-12-27T09:01:11.588Z,2.57
2022-12-27T09:03:59.989Z,3.07
2022-12-27T09:06:47.379Z,0.80
2022-12-27T09:09:35.301Z,1.43
2022-12-27T09:12:22.681Z,5.53
2022-12-27T09:15:10.793Z,1.80
2022-12-27T09:17:57.965Z,1.80
2022-12-27T09:20:45.858Z,3.60
2022-12-27T09:23:33.110Z,4.47
2022-12-27T09:26:22.068Z,1.00
2022-12-27T09:29:09.368Z,2.97
2022-12-27T09:31:57.276Z,1.40
2022-12-27T09:34:44.647Z,2.23
2022-12-27T09:37:33.110Z,4.30
2022-12-27T09:40:21.322Z,0.93
2022-12-27T09:43:22.374Z,2.07
2022-12-27T09:46:19.485Z,1.25
2022-12-27T09:49:10.141Z,1.95
2022-12-27T09:52:15.998Z,1.60
2022-12-27T09:55:08.586Z,0.73
2022-12-27T09:58:03.356Z,1.42
2022-12-27T10:00:51.714Z,2.58
2022-12-27T10:03:39.006Z,2.03
2022-12-27T10:06:34.406Z,1.20
2022-12-27T10:09:25.253Z,1.45
2022-12-27T10:12:32.172Z,3.50
2022-12-27T10:15:19.965Z,1.45
2022-12-27T10:18:16.994Z,2.30
2022-12-27T10:21:22.537Z,1.35
2022-12-27T10:24:26.710Z,2.58
2022-12-27T10:27:21.263Z,0.70
2022-12-27T10:30:28.384Z,0.70
2022-12-27T10:33:28.220Z,1.15
2022-12-27T10:36:17.279Z,0.82
2022-12-27T10:39:07.176Z,0.95
2022-12-27T10:42:13.790Z,0.57
2022-12-27T10:45:25.907Z,1.40
2022-12-27T10:48:15.384Z,2.28
2022-12-27T10:51:09.049Z,0.77
2022-12-27T10:54:11.943Z,0.82
2022-12-27T10:57:18.358Z,1.13
2022-12-27T11:00:17.490Z,1.15
2022-12-27T11:03:05.118Z,0.80
2022-12-27T11:06:03.919Z,2.42
2022-12-27T11:08:52.728Z,0.60
2022-12-27T11:11:40.095Z,0.70
2022-12-27T11:14:27.879Z,1.00
2022-12-27T11:17:15.655Z,3.00
2022-12-27T11:20:06.804Z,1.95
2022-12-27T11:23:05.022Z,1.15
2022-12-27T11:26:15.417Z,1.70
2022-12-27T11:29:04.090Z,0.70
2022-12-27T11:31:52.121Z,2.17
2022-12-27T11:34:44.957Z,1.95
2022-12-27T11:37:32.136Z,1.65
2022-12-27T11:40:24.923Z,1.92
2022-12-27T11:43:15.347Z,1.63
2022-12-27T11:46:04.628Z,2.75
2022-12-27T11:48:56.365Z,1.45
2022-12-27T11:52:02.929Z,2.30
2022-12-27T11:55:05.449Z,3.00
2022-12-27T11:57:53.382Z,2.10
2022-12-27T12:00:52.916Z,1.50
2022-12-27T12:03:46.680Z,3.47
2022-12-27T12:06:46.395Z,1.83
2022-12-27T12:09:52.907Z,1.10
2022-12-27T12:12:46.380Z,3.90
2022-12-27T12:15:52.877Z,1.63
2022-12-27T12:18:40.524Z,1.50
2022-12-27T12:21:32.385Z,0.90
2022-12-27T12:24:37.243Z,1.03
2022-12-27T12:27:24.666Z,1.20
2022-12-27T12:30:28.516Z,1.40
2022-12-27T12:33:41.978Z,1.10
2022-12-27T12:36:49.143Z,1.87
2022-12-27T12:39:39.497Z,1.27
2022-12-27T12:42:41.905Z,1.77
2022-12-27T12:45:32.374Z,2.27
2022-12-27T12:48:39.078Z,1.60
2022-12-27T12:51:41.882Z,3.33
2022-12-27T12:54:31.976Z,2.00
2022-12-27T12:57:43.803Z,4.67
2022-12-27T13:00:50.024Z,4.57
2022-12-27T13:03:56.397Z,1.60
2022-12-27T13:07:03.515Z,3.53
2022-12-27T13:10:00.102Z,1.33
2022-12-27T13:12:53.102Z,3.17
2022-12-27T13:16:05.904Z,2.97
2022-12-27T13:19:13.370Z,3.27
2022-12-27T13:22:07.308Z,1.77
2022-12-27T13:25:16.114Z,2.03
2022-12-27T13:28:03.469Z,1.20
2022-12-27T13:31:00.548Z,2.43
2022-12-27T13:34:08.236Z,2.43
2022-12-27T13:37:05.880Z,3.23
2022-12-27T13:39:53.119Z,5.90
2022-12-27T13:42:44.945Z,2.03
2022-12-27T13:45:35.758Z,2.20
2022-12-27T13:48:41.761Z,2.77
2022-12-27T13:51:46.116Z,5.00
2022-12-27T13:54:40.083Z,2.57
2022-12-27T13:57:51.800Z,4.07
2022-12-27T14:00:47.324Z,2.17
2022-12-27T14:03:56.504Z,3.60
2022-12-27T14:06:59.210Z,4.87
2022-12-27T14:10:04.618Z,1.40
2022-12-27T14:12:55.904Z,3.30
2022-12-27T14:15:43.239Z,2.13
2022-12-27T14:18:30.697Z,1.17
2022-12-27T14:21:17.960Z,2.73
2022-12-27T14:24:23.960Z,2.00
2022-12-27T14:27:11.301Z,2.77
2022-12-27T14:30:17.425Z,2.40
2022-12-27T14:33:16.896Z,1.50
2022-12-27T14:36:23.662Z,3.10
2022-12-27T14:39:15.636Z,3.30
2022-12-27T14:42:09.255Z,5.70
2022-12-27T14:45:15.479Z,3.63
2022-12-27T14:48:11.776Z,2.40
2022-12-27T14:51:02.070Z,5.23
2022-12-27T14:54:18.751Z,3.03
2022-12-27T14:57:06.006Z,5.83
2022-12-27T14:59:53.754Z,2.00
2022-12-27T15:03:00.736Z,4.77
2022-12-27T15:06:07.529Z,5.87
2022-12-27T15:09:01.369Z,2.60
2022-12-27T15:11:57.198Z,8.30
2022-12-27T15:14:54.003Z,2.60
2022-12-27T15:17:50.447Z,1.60
2022-12-27T15:20:41.252Z,3.10
2022-12-27T15:23:32.290Z,2.50
2022-12-27T15:26:43.294Z,3.67
2022-12-27T15:29:37.114Z,5.83
2022-12-27T15:32:24.298Z,8.47
2022-12-27T15:35:17.720Z,8.03
2022-12-27T15:38:08.002Z,3.57
2022-12-27T15:41:05.571Z,4.03
2022-12-27T15:44:01.347Z,5.77
2022-12-27T15:46:58.007Z,5.47
2022-12-27T15:49:52.062Z,5.23
2022-12-27T15:52:58.351Z,11.13
2022-12-27T15:55:58.295Z,7.63
2022-12-27T15:58:45.743Z,15.17
2022-12-27T16:01:34.919Z,9.10
2022-12-27T16:04:42.696Z,5.23
2022-12-27T16:07:43.719Z,3.63
2022-12-27T16:10:33.542Z,6.30
2022-12-27T16:13:29.544Z,5.37
2022-12-27T16:16:30.013Z,5.43
2022-12-27T16:19:22.193Z,16.97
2022-12-27T16:22:22.008Z,9.33
2022-12-27T16:25:24.134Z,7.63
2022-12-27T16:28:17.746Z,6.03
2022-12-27T16:31:12.342Z,6.10
2022-12-27T16:34:00.581Z,7.00
2022-12-27T16:36:49.091Z,9.73
2022-12-27T16:39:46.760Z,7.73
2022-12-27T16:42:53.030Z,6.73
2022-12-27T16:45:40.249Z,5.57
2022-12-27T16:49:03.157Z,5.30
2022-12-27T16:52:08.492Z,5.90
2022-12-27T16:55:15.137Z,7.03
2022-12-27T16:58:22.847Z,5.40
2022-12-27T17:01:19.386Z,6.93
2022-12-27T17:04:07.119Z,4.73
2022-12-27T17:06:55.599Z,6.30
2022-12-27T17:09:44.039Z,6.10
2022-12-27T17:12:32.413Z,4.57
2022-12-27T17:15:21.295Z,7.27
2022-12-27T17:18:15.092Z,4.43
2022-12-27T17:21:27.783Z,7.40
2022-12-27T17:24:21.533Z,5.83
2022-12-27T17:27:28.308Z,5.97
2022-12-27T17:30:19.061Z,6.43
2022-12-27T17:33:12.500Z,6.53
2022-12-27T17:36:09.137Z,9.30
2022-12-27T17:39:08.298Z,6.57
2022-12-27T17:42:26.550Z,5.63
2022-12-27T17:45:38.595Z,5.57
2022-12-27T17:48:30.391Z,6.33
2022-12-27T17:51:21.941Z,5.63
2022-12-27T17:54:44.804Z,8.10
2022-12-27T17:57:51.377Z,4.90
2022-12-27T18:00:53.833Z,10.37
2022-12-27T18:03:43.809Z,6.37
2022-12-27T18:06:31.079Z,5.80
2022-12-27T18:09:28.597Z,6.03
2022-12-27T18:12:23.784Z,5.73
2022-12-27T18:15:21.783Z,5.63
2022-12-27T18:18:09.296Z,5.90
2022-12-27T18:21:00.105Z,4.00
2022-12-27T18:23:49.070Z,4.23
2022-12-27T18:26:38.738Z,7.80
2022-12-27T18:29:25.990Z,5.83
2022-12-27T18:32:15.133Z,6.67
2022-12-27T18:35:03.472Z,6.70
2022-12-27T18:37:50.787Z,8.17
2022-12-27T18:40:38.175Z,7.17
2022-12-27T18:43:25.847Z,12.50
2022-12-27T18:46:15.879Z,11.43
2022-12-27T18:49:04.220Z,11.87
2022-12-27T18:51:52.286Z,8.10
2022-12-27T18:54:39.751Z,8.23
2022-12-27T18:57:46.166Z,22.93
2022-12-27T19:00:33.552Z,9.07
2022-12-27T19:03:21.277Z,8.50
2022-12-27T19:06:12.197Z,8.93
2022-12-27T19:08:59.491Z,7.57
2022-12-27T19:11:51.954Z,10.40
2022-12-27T19:14:43.986Z,7.40
2022-12-27T19:17:32.878Z,7.93
2022-12-27T19:20:34.010Z,7.10
2022-12-27T19:23:26.012Z,5.93
2022-12-27T19:26:16.401Z,10.40
2022-12-27T19:29:08.037Z,9.20
2022-12-27T19:31:57.216Z,6.20
2022-12-27T19:34:49.726Z,6.20
2022-12-27T19:37:37.115Z,10.10
2022-12-27T19:40:24.665Z,11.93
2022-12-27T19:43:14.008Z,9.17
2022-12-27T19:46:01.971Z,10.13
2022-12-27T19:49:23.310Z,11.50
2022-12-27T19:51:58.614Z,9.47
2022-12-27T19:54:47.212Z,7.57
2022-12-27T19:57:34.518Z,5.87
2022-12-27T20:00:23.523Z,9.67
2022-12-27T20:03:11.471Z,9.90
2022-12-27T20:06:14.775Z,8.43
2022-12-27T20:09:07.844Z,11.20
2022-12-27T20:11:55.310Z,6.57
2022-12-27T20:14:42.958Z,12.90
2022-12-27T20:17:32.425Z,7.73
2022-12-27T20:20:20.474Z,11.33
2022-12-27T20:23:07.678Z,10.13
2022-12-27T20:25:57.692Z,9.03
2022-12-27T20:28:45.503Z,7.90
2022-12-27T20:31:33.045Z,9.60
2022-12-27T20:34:20.936Z,9.27
2022-12-27T20:37:08.923Z,10.43
2022-12-27T20:39:56.791Z,9.37
2022-12-27T20:42:44.187Z,10.03
2022-12-27T20:45:31.917Z,6.73
2022-12-27T20:48:19.321Z,6.07
2022-12-27T20:51:08.931Z,8.27
2022-12-27T20:53:57.918Z,7.73
2022-12-27T20:56:45.801Z,6.07
2022-12-27T20:59:33.221Z,8.97
2022-12-27T21:02:20.994Z,7.67
2022-12-27T21:05:09.026Z,8.80
2022-12-27T21:07:56.390Z,8.50
2022-12-27T21:10:43.825Z,6.80
2022-12-27T21:13:33.220Z,8.97
2022-12-27T21:16:22.155Z,6.23
2022-12-27T21:19:09.568Z,6.57
2022-12-27T21:21:57.288Z,8.67
2022-12-27T21:24:44.626Z,5.80
2022-12-27T21:27:32.064Z,5.80
2022-12-27T21:30:19.490Z,6.77
2022-12-27T21:33:06.760Z,4.87
2022-12-27T21:36:01.616Z,7.97
2022-12-27T21:38:49.488Z,6.30
2022-12-27T21:41:38.495Z,3.63
2022-12-27T21:44:25.962Z,4.27
2022-12-27T21:47:13.845Z,4.83
2022-12-27T21:50:01.088Z,4.37
2022-12-27T21:52:48.414Z,5.20
2022-12-27T21:55:35.736Z,4.97
2022-12-27T21:58:22.946Z,5.40
2022-12-27T22:01:21.021Z,4.03
2022-12-27T22:04:08.449Z,4.90
2022-12-27T22:06:55.937Z,6.50
2022-12-27T22:09:43.147Z,5.40
2022-12-27T22:12:30.545Z,6.37
2022-12-27T22:15:17.956Z,3.80
2022-12-27T22:18:05.336Z,4.90
2022-12-27T22:20:53.235Z,4.77
2022-12-27T22:23:41.879Z,5.70
2022-12-27T22:26:33.466Z,4.53
2022-12-27T22:29:21.674Z,5.77
2022-12-27T22:32:09.518Z,6.27
2022-12-27T22:34:56.783Z,5.93
2022-12-27T22:37:44.045Z,5.03
2022-12-27T22:40:45.785Z,5.93
2022-12-27T22:43:35.718Z,4.10
2022-12-27T22:46:23.769Z,3.27
2022-12-27T22:49:11.681Z,4.50
2022-12-27T22:51:59.059Z,4.43
2022-12-27T22:55:04.327Z,4.67
2022-12-27T22:57:54.421Z,4.33
2022-12-27T23:00:42.159Z,2.63
2022-12-27T23:03:29.582Z,2.80
2022-12-27T23:06:17.932Z,3.47
2022-12-27T23:09:05.469Z,3.37
2022-12-27T23:11:53.126Z,2.83
2022-12-27T23:14:41.067Z,3.23
2022-12-27T23:17:28.930Z,3.43
2022-12-27T23:20:16.845Z,3.93
2022-12-27T23:23:04.763Z,4.43
2022-12-27T23:25:52.941Z,4.47
2022-12-27T23:28:41.623Z,3.83
2022-12-27T23:31:29.738Z,3.27
2022-12-27T23:34:22.511Z,3.13
2022-12-27T23:37:13.525Z,4.10
2022-12-27T23:40:01.967Z,2.53
2022-12-27T23:42:49.946Z,4.53
2022-12-27T23:45:37.750Z,8.03
2022-12-27T23:48:25.045Z,2.73
2022-12-27T23:51:13.278Z,2.50
2022-12-27T23:54:01.072Z,2.57
2022-12-27T23:56:48.847Z,2.77
2022-12-27T23:59:36.266Z,4.00
